createdAt,value
2022-10-29T00:00:07.682Z,71.30175781
2022-10-29T00:01:12.782Z,71.37988281
2022-10-29T00:02:05.716Z,71.52636719
2022-10-29T00:03:05.584Z,71.62792969
2022-10-29T00:04:08.551Z,71.57910156
2022-10-29T00:05:08.721Z,71.72363281
2022-10-29T00:06:07.720Z,71.89453125
2022-10-29T00:07:06.609Z,71.83300781
2022-10-29T00:08:02.199Z,71.92382813
2022-10-29T00:09:02.954Z,71.88574219
2022-10-29T00:10:05.209Z,71.98535156
2022-10-29T00:11:02.376Z,72.34863281
2022-10-29T00:12:04.515Z,72.29296875
2022-10-29T00:12:56.546Z,71.94726563
2022-10-29T00:13:55.391Z,72.25488281
2022-10-29T00:14:51.040Z,72.23242188
2022-10-29T00:15:50.277Z,72.03515625
2022-10-29T00:16:45.481Z,71.8984375
2022-10-29T00:17:41.772Z,72.09570313
2022-10-29T00:18:41.472Z,72.34179688
2022-10-29T00:19:45.455Z,72.31445313
2022-10-29T00:20:48.889Z,72.29101563
2022-10-29T00:21:48.667Z,72.27636719
2022-10-29T00:22:47.213Z,72.45019531
2022-10-29T00:23:45.767Z,72.44433594
2022-10-29T00:24:45.250Z,72.578125
2022-10-29T00:25:42.443Z,72.52929688
2022-10-29T00:26:44.746Z,72.63085938
2022-10-29T00:28:39.652Z,72.87304688
2022-10-29T00:29:31.693Z,72.85058594
2022-10-29T00:31:16.102Z,72.69140625
2022-10-29T00:32:01.598Z,72.29101563
2022-10-29T00:33:00.772Z,72.25292969
2022-10-29T00:33:57.553Z,72.25976563
2022-10-29T00:34:56.955Z,72.44921875
2022-10-29T00:35:51.437Z,72.44433594
2022-10-29T00:36:55.775Z,72.24902344
2022-10-29T00:37:51.094Z,72.66992188
2022-10-29T00:38:53.552Z,72.79199219
2022-10-29T00:39:55.555Z,72.69335938
2022-10-29T00:41:00.848Z,72.86425781
2022-10-29T00:42:03.544Z,72.97558594
2022-10-29T00:42:58.342Z,72.87304688
2022-10-29T00:43:59.133Z,72.90625
2022-10-29T00:44:53.654Z,73.10839844
2022-10-29T00:45:54.906Z,72.97167969
2022-10-29T00:46:55.716Z,72.89160156
2022-10-29T00:48:05.732Z,73.09667969
2022-10-29T00:48:58.670Z,73.0625
2022-10-29T00:49:59.082Z,73.17675781
2022-10-29T00:50:58.744Z,73.1875
2022-10-29T00:51:54.847Z,72.93261719
2022-10-29T00:52:59.146Z,73.11621094
2022-10-29T00:53:51.750Z,73.13769531
2022-10-29T00:55:00.204Z,73.10351563
2022-10-29T00:56:03.516Z,73.21777344
2022-10-29T00:57:00.723Z,73.06835938
2022-10-29T00:59:00.042Z,73.27636719
2022-10-29T00:59:59.078Z,73.44433594
2022-10-29T01:01:57.666Z,73.12207031
2022-10-29T01:03:22.769Z,72.55175781
2022-10-29T01:04:22.913Z,72.19140625
2022-10-29T01:05:26.815Z,72.61035156
2022-10-29T01:06:22.240Z,72.36621094
2022-10-29T01:07:25.290Z,72.4765625
2022-10-29T01:08:20.118Z,72.64160156
2022-10-29T01:09:19.390Z,72.70507813
2022-10-29T01:10:14.684Z,72.67871094
2022-10-29T01:11:14.587Z,72.8203125
2022-10-29T01:12:14.541Z,72.91210938
2022-10-29T01:13:10.311Z,72.79296875
2022-10-29T01:14:14.129Z,72.94726563
2022-10-29T01:15:09.415Z,73.25195313
2022-10-29T01:16:08.478Z,73.08886719
2022-10-29T01:17:03.738Z,72.96289063
2022-10-29T01:18:04.265Z,73.24023438
2022-10-29T01:19:02.250Z,73.48632813
2022-10-29T01:20:06.973Z,73.33886719
2022-10-29T01:21:05.788Z,73.25585938
2022-10-29T01:22:04.139Z,73.24414063
2022-10-29T01:23:08.957Z,73.3359375
2022-10-29T01:24:06.200Z,73.20703125
2022-10-29T01:25:05.985Z,73.33105469
2022-10-29T01:26:05.887Z,73.16015625
2022-10-29T01:27:07.377Z,73.11328125
2022-10-29T01:28:07.316Z,73.25097656
2022-10-29T01:29:01.599Z,73.34082031
2022-10-29T01:30:04.323Z,73.30859375
2022-10-29T01:30:58.551Z,73.60644531
2022-10-29T01:31:59.682Z,73.33300781
2022-10-29T01:32:54.327Z,73.59960938
2022-10-29T01:33:54.062Z,73.40429688
2022-10-29T01:35:17.687Z,73.16503906
2022-10-29T01:35:58.140Z,73.23632813
2022-10-29T01:36:56.119Z,72.87597656
2022-10-29T01:39:04.756Z,72.78125
2022-10-29T01:40:05.002Z,73.04882813
2022-10-29T01:41:04.092Z,72.92089844
2022-10-29T01:42:06.753Z,72.98144531
2022-10-29T01:43:00.409Z,73.04882813
2022-10-29T01:44:00.575Z,73.33886719
2022-10-29T01:44:56.992Z,73.4609375
2022-10-29T01:45:56.625Z,73.55273438
2022-10-29T01:46:54.659Z,73.33300781
2022-10-29T01:49:00.667Z,73.59179688
2022-10-29T01:50:02.175Z,73.57617188
2022-10-29T01:51:00.521Z,73.57519531
2022-10-29T01:51:53.257Z,73.20214844
2022-10-29T01:52:59.198Z,73.53710938
2022-10-29T01:53:52.503Z,73.59082031
2022-10-29T01:54:55.287Z,73.71191406
2022-10-29T01:55:52.948Z,73.75292969
2022-10-29T01:56:53.675Z,73.46484375
2022-10-29T01:57:50.113Z,73.6015625
2022-10-29T01:58:53.062Z,73.88183594
2022-10-29T02:00:05.067Z,73.92285156
2022-10-29T02:01:08.447Z,74.14941406
2022-10-29T02:02:05.709Z,74.03515625
2022-10-29T02:04:02.214Z,73.96679688
2022-10-29T02:05:04.471Z,74.01074219
2022-10-29T02:05:58.815Z,73.80566406
2022-10-29T02:06:59.495Z,73.44140625
2022-10-29T02:07:55.807Z,73.45410156
2022-10-29T02:08:55.361Z,73.56347656
2022-10-29T02:09:53.574Z,73.8671875
2022-10-29T02:11:25.412Z,73.91894531
2022-10-29T02:12:04.933Z,73.70703125
2022-10-29T02:13:04.993Z,73.7265625
2022-10-29T02:14:05.351Z,73.4375
2022-10-29T02:15:01.499Z,73.73828125
2022-10-29T02:16:00.383Z,73.859375
2022-10-29T02:17:02.080Z,73.77636719
2022-10-29T02:19:02.933Z,74.03515625
2022-10-29T02:19:58.238Z,74.04394531
2022-10-29T02:20:58.209Z,73.97558594
2022-10-29T02:21:59.934Z,73.90234375
2022-10-29T02:23:00.354Z,73.94824219
2022-10-29T02:23:56.621Z,73.93554688
2022-10-29T02:24:57.209Z,74.28515625
2022-10-29T02:25:54.066Z,74.3046875
2022-10-29T02:26:53.748Z,74.14550781
2022-10-29T02:27:50.539Z,74.21679688
2022-10-29T02:28:54.044Z,74.44140625
2022-10-29T02:29:55.730Z,74.171875
2022-10-29T02:30:51.071Z,73.96386719
2022-10-29T02:31:55.478Z,73.66015625
2022-10-29T02:32:55.954Z,73.87792969
2022-10-29T02:33:55.650Z,73.72167969
2022-10-29T02:34:50.980Z,73.97070313
2022-10-29T02:35:51.749Z,74.04589844
2022-10-29T02:36:46.868Z,73.95214844
2022-10-29T02:37:44.332Z,73.94335938
2022-10-29T02:38:44.008Z,74.32617188
2022-10-29T02:39:42.365Z,74.35742188
2022-10-29T02:40:42.986Z,74.17089844
2022-10-29T02:41:38.282Z,74.31835938
2022-10-29T02:43:33.154Z,74.28417969
2022-10-29T02:45:16.979Z,74.24804688
2022-10-29T02:45:57.117Z,73.93652344
2022-10-29T02:46:59.435Z,73.54296875
2022-10-29T02:49:12.213Z,73.81054688
2022-10-29T02:50:12.617Z,73.94042969
2022-10-29T02:51:08.331Z,73.95898438
2022-10-29T02:52:07.765Z,73.89941406
2022-10-29T02:54:06.463Z,74.17089844
2022-10-29T02:54:59.046Z,74.22460938
2022-10-29T02:55:58.348Z,74.00878906
2022-10-29T02:56:56.756Z,73.86914063
2022-10-29T02:57:59.486Z,74.03222656
2022-10-29T02:58:54.488Z,73.82910156
2022-10-29T02:59:54.632Z,73.75
2022-10-29T03:01:03.888Z,73.98242188
2022-10-29T03:01:59.146Z,73.68066406
2022-10-29T03:03:09.529Z,74.14550781
2022-10-29T03:04:06.179Z,74.06152344
2022-10-29T03:05:06.589Z,74.14941406
2022-10-29T03:06:01.829Z,74.28027344
2022-10-29T03:07:03.904Z,74.20019531
2022-10-29T03:07:58.193Z,74.20019531
2022-10-29T03:09:01.491Z,74.25585938
2022-10-29T03:09:57.051Z,74.39941406
2022-10-29T03:10:59.008Z,74.23828125
2022-10-29T03:11:55.318Z,74.49902344
2022-10-29T03:13:50.480Z,74.453125
2022-10-29T03:14:52.943Z,74.20019531
2022-10-29T03:15:50.318Z,74.19824219
2022-10-29T03:16:44.559Z,74.41113281
2022-10-29T03:17:46.381Z,74.27929688
2022-10-29T03:18:43.872Z,74.50195313
2022-10-29T03:19:45.605Z,74.87792969
2022-10-29T03:20:38.117Z,74.53320313
2022-10-29T03:22:57.063Z,74.12988281
2022-10-29T03:23:36.347Z,73.90429688
2022-10-29T03:24:37.722Z,73.73632813
2022-10-29T03:25:36.781Z,74.04003906
2022-10-29T03:26:35.459Z,74.16894531
2022-10-29T03:27:30.041Z,74.18652344
2022-10-29T03:28:31.762Z,74.36425781
2022-10-29T03:29:32.234Z,74.59570313
2022-10-29T03:30:27.623Z,74.78417969
2022-10-29T03:31:26.427Z,74.77929688
2022-10-29T03:32:24.523Z,74.98242188
2022-10-29T03:33:28.239Z,75.11621094
2022-10-29T03:34:23.869Z,75.12109375
2022-10-29T03:35:23.164Z,75.26757813
2022-10-29T08:17:51.307Z,58.28417969
2022-10-29T08:18:47.370Z,57.296875
2022-10-29T08:19:50.926Z,58.06152344
2022-10-29T08:20:46.189Z,60.22949219
2022-10-29T08:21:46.431Z,60.484375
2022-10-29T08:22:43.682Z,61.31933594
2022-10-29T08:23:48.594Z,62.21875
2022-10-29T08:24:44.776Z,62.9296875
2022-10-29T08:25:48.233Z,62.8203125
2022-10-29T08:26:46.534Z,63.0625
2022-10-29T08:27:43.911Z,63.99804688
2022-10-29T08:29:41.958Z,64.28027344
2022-10-29T08:30:47.144Z,65.50585938
2022-10-29T08:31:41.818Z,63.73535156
2022-10-29T08:32:41.304Z,64.54980469
2022-10-29T08:33:44.152Z,65.39160156
2022-10-29T08:34:44.746Z,64.82910156
2022-10-29T08:35:49.308Z,65.36914063
2022-10-29T08:36:42.329Z,65.73144531
2022-10-29T08:38:19.648Z,65.42382813
2022-10-29T08:38:59.508Z,65.17285156
2022-10-29T08:39:58.690Z,65.93066406
2022-10-29T08:40:59.575Z,66.36132813
2022-10-29T08:41:54.922Z,66.52832031
2022-10-29T08:42:57.075Z,67.02539063
2022-10-29T08:43:56.359Z,67.88769531
2022-10-29T08:44:57.590Z,68.23925781
2022-10-29T08:45:52.779Z,67.44335938
2022-10-29T08:46:53.398Z,67.00585938
2022-10-29T08:47:49.250Z,67.21972656
2022-10-29T08:48:49.251Z,67.70898438
2022-10-29T08:49:44.746Z,66.7578125
2022-10-29T08:50:43.816Z,66.59375
2022-10-29T08:51:39.082Z,67.22265625
2022-10-29T08:52:53.039Z,67.65332031
2022-10-29T08:52:53.219Z,67.65332031
2022-10-29T08:53:39.583Z,68.11328125
2022-10-29T08:54:35.520Z,67.87890625
2022-10-29T08:55:38.194Z,67.89355469
2022-10-29T08:56:39.845Z,68.0390625
2022-10-29T08:57:35.417Z,67.72753906
2022-10-29T08:59:31.017Z,67.71582031
2022-10-29T09:00:32.091Z,67.90234375
2022-10-29T09:01:29.279Z,68.18554688
2022-10-29T09:02:31.471Z,68.62011719
2022-10-29T09:03:25.682Z,68.83984375
2022-10-29T09:04:30.781Z,68.43945313
2022-10-29T09:05:23.302Z,67.93652344
2022-10-29T09:06:20.408Z,67.95996094
2022-10-29T09:07:18.308Z,67.30664063
2022-10-29T09:08:20.109Z,67.78710938
2022-10-29T09:09:12.611Z,67.11230469
2022-10-29T09:10:17.938Z,66.61035156
2022-10-29T09:11:11.797Z,66.875
2022-10-29T09:12:16.506Z,66.53515625
2022-10-29T09:13:11.661Z,66.99414063
2022-10-29T09:14:10.543Z,67.16894531
2022-10-29T09:15:08.590Z,66.60839844
2022-10-29T09:16:08.162Z,66.79296875
2022-10-29T09:17:05.396Z,66.65625
2022-10-29T09:18:50.912Z,67.02539063
2022-10-29T09:19:30.923Z,67.3203125
2022-10-29T09:20:28.818Z,66.93945313
2022-10-29T09:27:55.699Z,61.36230469
2022-10-29T09:28:53.935Z,60.43164063
2022-10-29T09:30:02.776Z,59.7578125
2022-10-29T09:30:58.338Z,60.64941406
2022-10-29T09:31:59.864Z,61.51855469
2022-10-29T09:32:55.349Z,61.84863281
2022-10-29T09:34:01.658Z,62.15722656
2022-10-29T09:35:00.103Z,62.94335938
2022-10-29T09:35:57.431Z,62.5859375
2022-10-29T09:36:57.276Z,62.85839844
2022-10-29T09:37:52.743Z,63.49511719
2022-10-29T09:39:50.577Z,63.62597656
2022-10-29T09:40:53.450Z,63.46484375
2022-10-29T09:41:46.351Z,64.17382813
2022-10-29T09:42:51.894Z,64.38476563
2022-10-29T09:43:53.539Z,64.10449219
2022-10-29T09:44:49.952Z,64.109375
2022-10-29T09:45:51.253Z,64.04980469
2022-10-29T09:46:48.766Z,64.31933594
2022-10-29T09:47:49.060Z,64.94921875
2022-10-29T09:48:43.704Z,64.88964844
2022-10-29T09:49:51.412Z,65.17578125
2022-10-29T09:50:43.811Z,64.96679688
2022-10-29T09:51:44.085Z,65.39160156
2022-10-29T09:52:41.567Z,65.4375
2022-10-29T09:54:42.471Z,65.14941406
2022-10-29T09:55:47.492Z,65.3984375
2022-10-29T09:56:40.813Z,65.58398438
2022-10-29T09:57:45.352Z,65.18066406
2022-10-29T09:59:40.505Z,64.74902344
2022-10-29T10:00:43.048Z,65.26660156
2022-10-29T10:01:40.849Z,65.50878906
2022-10-29T10:02:44.141Z,65.04882813
2022-10-29T10:04:41.012Z,65.65917969
2022-10-29T10:05:36.118Z,65.86425781
2022-10-29T10:06:40.636Z,66.18945313
2022-10-29T10:07:36.134Z,65.88183594
2022-10-29T10:10:16.449Z,66.25
2022-10-29T10:11:13.083Z,65.97460938
2022-10-29T10:12:18.003Z,65.6328125
2022-10-29T10:14:03.777Z,65.36914063
2022-10-29T10:14:45.798Z,64.95898438
2022-10-29T10:15:47.614Z,64.84863281
2022-10-29T10:16:43.846Z,64.5078125
2022-10-29T10:17:42.171Z,64.6328125
2022-10-29T10:18:36.511Z,64.99121094
2022-10-29T10:19:34.378Z,64.63476563
2022-10-29T10:20:33.280Z,65.21582031
2022-10-29T10:21:27.674Z,65.68066406
2022-10-29T10:22:28.567Z,66.06738281
2022-10-29T10:23:19.868Z,66.06347656
2022-10-29T10:24:18.541Z,65.9453125
2022-10-29T10:25:12.429Z,65.92089844
2022-10-29T10:26:11.127Z,65.81445313
2022-10-29T10:27:05.055Z,66.0078125
2022-10-29T10:28:07.432Z,65.12304688
2022-10-29T10:29:01.864Z,64.62695313
2022-10-29T10:30:01.048Z,64.66015625
2022-10-29T10:30:56.314Z,65.31542969
2022-10-29T10:31:57.838Z,65.7421875
2022-10-29T10:39:04.464Z,60.00390625
2022-10-29T10:39:58.809Z,59.37304688
2022-10-29T10:40:57.711Z,59.81152344
2022-10-29T10:41:53.384Z,60.47265625
2022-10-29T10:42:52.805Z,60.56835938
2022-10-29T10:43:47.425Z,61.18554688
2022-10-29T10:44:48.772Z,60.90820313
2022-10-29T10:45:46.531Z,60.43554688
2022-10-29T10:46:45.546Z,61.25976563
2022-10-29T10:49:13.498Z,61.95703125
2022-10-29T10:50:06.951Z,62.43164063
2022-10-29T10:51:05.930Z,62.75292969
2022-10-29T10:52:06.309Z,62.93066406
2022-10-29T10:53:02.628Z,62.84179688
2022-10-29T10:54:04.421Z,63.42675781
2022-10-29T10:54:58.833Z,62.89453125
2022-10-29T10:55:58.247Z,61.48730469
2022-10-29T10:56:57.322Z,62.15234375
2022-10-29T10:58:03.350Z,62.57226563
2022-10-29T10:59:27.813Z,62.1328125
2022-10-29T11:00:10.365Z,60.86621094
2022-10-29T11:01:08.546Z,61.40917969
2022-10-29T11:02:09.906Z,61.55078125
2022-10-29T11:03:07.045Z,60.85058594
2022-10-29T11:04:06.455Z,60.47167969
2022-10-29T11:05:05.171Z,60.88476563
2022-10-29T11:05:08.142Z,60.88476563
2022-10-29T11:06:05.172Z,61.63671875
2022-10-29T11:07:03.233Z,61.69433594
2022-10-29T11:08:02.787Z,62.54589844
2022-10-29T11:09:59.860Z,62.16210938
2022-10-29T11:10:54.971Z,61.64355469
2022-10-29T11:11:59.041Z,62.47070313
2022-10-29T11:12:52.402Z,61.67773438
2022-10-29T11:14:50.979Z,62.42773438
2022-10-29T11:15:52.896Z,62.10449219
2022-10-29T11:16:49.071Z,61.875
2022-10-29T11:17:57.163Z,62.32324219
2022-10-29T11:18:52.509Z,62.3359375
2022-10-29T11:19:47.901Z,61.09375
2022-10-29T11:20:53.429Z,61.04882813
2022-10-29T11:21:46.816Z,60.578125
2022-10-29T11:22:49.527Z,60.90234375
2022-10-29T11:23:43.011Z,60.87011719
2022-10-29T11:24:41.603Z,60.66699219
2022-10-29T11:25:42.735Z,60.43652344
2022-10-29T11:26:39.133Z,61.3125
2022-10-29T11:27:42.060Z,61.87695313
2022-10-29T11:29:42.174Z,62.5703125
2022-10-29T11:30:44.588Z,62.81542969
2022-10-29T11:31:37.406Z,61.00976563
2022-10-29T11:32:39.975Z,61.08300781
2022-10-29T11:34:35.692Z,59.79589844
2022-10-29T11:35:31.872Z,59.34667969
2022-10-29T11:36:30.797Z,59.70703125
2022-10-29T11:37:29.750Z,60.13378906
2022-10-29T11:39:27.002Z,59.43261719
2022-10-29T11:40:23.656Z,59.98632813
2022-10-29T11:41:20.859Z,60.24023438
2022-10-29T11:42:23.243Z,60.34472656
2022-10-29T11:43:16.674Z,60.68164063
2022-10-29T11:44:17.153Z,60.2109375
2022-10-29T11:45:13.806Z,60.31542969
2022-10-29T11:46:15.662Z,60.40722656
2022-10-29T11:47:44.657Z,60.96386719
2022-10-29T11:49:22.305Z,59.9140625
2022-10-29T11:50:20.511Z,60.07617188
2022-10-29T11:51:19.909Z,61.53808594
2022-10-29T11:52:20.158Z,61.17675781
2022-10-29T11:53:14.914Z,60.61328125
2022-10-29T11:54:20.128Z,60.64648438
2022-10-29T11:55:16.140Z,60.57421875
2022-10-29T11:56:15.645Z,59.44433594
2022-10-29T11:57:16.848Z,60.04492188
2022-10-29T11:58:15.033Z,60.88574219
2022-10-29T11:59:11.550Z,59.18066406
2022-10-29T12:00:10.731Z,59.46875
2022-10-29T12:01:08.623Z,60.27539063
2022-10-29T12:02:06.602Z,60.02246094
2022-10-29T12:03:09.533Z,60.25585938
2022-10-29T12:04:03.441Z,60.66992188
2022-10-29T12:05:03.021Z,59.78417969
2022-10-29T12:06:04.537Z,59.85449219
2022-10-29T12:06:57.759Z,58.93554688
2022-10-29T12:08:00.283Z,59.72265625
2022-10-29T12:08:53.937Z,59.05664063
2022-10-29T12:09:55.668Z,59.43652344
2022-10-29T12:10:50.062Z,58.8515625
2022-10-29T12:11:47.954Z,58.63183594
2022-10-29T12:12:49.296Z,59.24316406
2022-10-29T12:13:47.227Z,58.3671875
2022-10-29T12:14:50.987Z,59.08105469
2022-10-29T12:15:46.545Z,58.6875
2022-10-29T12:16:52.389Z,58.55957031
2022-10-29T12:17:46.502Z,58.7578125
2022-10-29T12:19:43.817Z,58.11328125
2022-10-29T12:21:13.866Z,58.04492188
2022-10-29T12:21:54.441Z,58.62402344
2022-10-29T12:22:53.261Z,58.12109375
2022-10-29T12:24:50.026Z,57.74121094
2022-10-29T12:25:49.984Z,58.29492188
2022-10-29T12:26:45.679Z,57.78613281
2022-10-29T12:27:47.479Z,58.25878906
2022-10-29T12:29:46.245Z,58.05273438
2022-10-29T12:30:40.532Z,57.76464844
2022-10-29T12:31:38.090Z,57.28222656
2022-10-29T12:32:39.081Z,57.60449219
2022-10-29T12:33:35.713Z,58.24316406
2022-10-29T12:34:38.163Z,57.8046875
2022-10-29T12:35:33.294Z,57.37890625
2022-10-29T12:36:32.637Z,57.30273438
2022-10-29T12:37:29.013Z,58.50390625
2022-10-29T12:39:26.187Z,57.80371094
2022-10-29T12:40:27.550Z,57.45605469
2022-10-29T12:42:26.392Z,58.48632813
2022-10-29T12:44:23.088Z,57.78027344
2022-10-29T12:45:18.802Z,58.21777344
2022-10-29T12:46:30.336Z,57.01757813
2022-10-29T12:47:29.160Z,57.99707031
2022-10-29T12:49:30.835Z,57.375
2022-10-29T12:50:26.969Z,57.24804688
2022-10-29T12:51:29.489Z,57.17871094
2022-10-29T12:52:23.938Z,57.36425781
2022-10-29T12:54:25.595Z,58.25683594
2022-10-29T12:56:28.499Z,56.65234375
2022-10-29T12:57:13.285Z,56.52539063
2022-10-29T12:57:57.215Z,56.22949219
2022-10-29T12:58:57.720Z,55.953125
2022-10-29T12:59:52.961Z,55.19726563
2022-10-29T13:00:52.186Z,56.203125
2022-10-29T13:02:10.935Z,56.50195313
2022-10-29T13:02:11.733Z,56.50195313
2022-10-29T13:02:13.461Z,56.50195313
2022-10-29T13:02:46.207Z,56.95507813
2022-10-29T13:03:52.082Z,56.51953125
2022-10-29T13:04:47.821Z,56.53125
2022-10-29T13:05:47.146Z,57.08300781
2022-10-29T13:06:47.223Z,57.20898438
2022-10-29T13:07:49.279Z,58.05761719
2022-10-29T13:08:45.806Z,57.98730469
2022-10-29T13:09:48.168Z,58.08007813
2022-10-29T13:09:48.667Z,58.08007813
2022-10-29T13:10:43.650Z,57.62109375
2022-10-29T13:11:45.997Z,57.04492188
2022-10-29T13:12:47.252Z,56.97460938
2022-10-29T13:14:42.629Z,57.14355469
2022-10-29T13:15:37.129Z,57.2578125
2022-10-29T13:16:39.138Z,57.7734375
2022-10-29T13:17:31.504Z,57.93652344
2022-10-29T13:19:26.455Z,57.96972656
2022-10-29T13:20:27.023Z,58.02636719
2022-10-29T13:21:21.662Z,58.09570313
2022-10-29T13:22:23.427Z,57.75878906
2022-10-29T13:23:15.821Z,56.94042969
2022-10-29T13:24:16.903Z,56.84667969
2022-10-29T13:25:09.323Z,57.62109375
2022-10-29T13:26:09.408Z,57.80761719
2022-10-29T13:27:05.395Z,57.54589844
2022-10-29T13:28:06.839Z,57.4296875
2022-10-29T13:30:01.786Z,57.69433594
2022-10-29T13:30:54.498Z,57.79785156
2022-10-29T13:32:04.670Z,58.22265625
2022-10-29T13:32:58.812Z,57.96972656
2022-10-29T13:34:58.413Z,56.49511719
2022-10-29T13:35:53.630Z,57.2109375
2022-10-29T13:36:51.777Z,56.296875
2022-10-29T13:37:45.985Z,56.73535156
2022-10-29T13:39:42.162Z,57.50976563
2022-10-29T13:40:38.335Z,57.88476563
2022-10-29T13:41:39.485Z,56.41992188
2022-10-29T13:42:32.511Z,56.140625
2022-10-29T13:43:41.594Z,56.12792969
2022-10-29T13:44:38.404Z,56.77441406
2022-10-29T13:45:40.287Z,55.7109375
2022-10-29T13:46:44.782Z,56.04589844
2022-10-29T13:46:45.739Z,56.04589844
2022-10-29T13:49:25.233Z,56.18066406
2022-10-29T13:50:21.763Z,56.33496094
2022-10-29T13:51:23.859Z,56.21777344
2022-10-29T13:52:15.526Z,55.71875
2022-10-29T13:53:14.456Z,56.36132813
2022-10-29T13:55:00.350Z,57.28808594
2022-10-29T13:55:41.532Z,55.671875
2022-10-29T13:56:42.664Z,56.25
2022-10-29T13:57:44.591Z,55.32324219
2022-10-29T13:59:51.447Z,58.35546875
2022-10-29T14:00:48.711Z,59.13769531
2022-10-29T14:01:50.138Z,59.73144531
2022-10-29T14:02:46.874Z,60.41113281
2022-10-29T14:04:49.561Z,59.42382813
2022-10-29T14:05:47.734Z,60.078125
2022-10-29T14:06:49.075Z,60.37695313
2022-10-29T14:07:53.778Z,61.33105469
2022-10-29T14:08:57.362Z,60.53222656
2022-10-29T14:09:51.597Z,59.75878906
2022-10-29T14:10:54.651Z,60.08105469
2022-10-29T14:11:52.052Z,60.57519531
2022-10-29T14:12:54.314Z,61.33496094
2022-10-29T14:13:51.506Z,59.5703125
2022-10-29T14:14:56.565Z,59.17675781
2022-10-29T14:16:44.619Z,59.40820313
2022-10-29T14:17:33.981Z,59.41308594
2022-10-29T14:18:33.122Z,59.85644531
2022-10-29T14:19:34.403Z,59.22070313
2022-10-29T14:20:30.009Z,59.79785156
2022-10-29T14:21:34.908Z,60.2578125
2022-10-29T14:22:32.065Z,61.06347656
2022-10-29T14:23:34.064Z,61.14160156
2022-10-29T14:24:36.712Z,58.34863281
2022-10-29T14:26:03.633Z,57.74316406
2022-10-29T14:27:07.618Z,58.359375
2022-10-29T14:28:06.374Z,59.02050781
2022-10-29T14:30:02.572Z,59.12988281
2022-10-29T14:30:58.829Z,59.46289063
2022-10-29T14:32:00.526Z,59.41015625
2022-10-29T14:32:55.878Z,59.48632813
2022-10-29T14:33:58.429Z,58.97167969
2022-10-29T14:34:58.790Z,58.44433594
2022-10-29T14:35:52.232Z,59.38867188
2022-10-29T14:36:54.217Z,60.72363281
2022-10-29T14:37:54.990Z,61.16015625
2022-10-29T14:38:54.565Z,61.06347656
2022-10-29T14:39:58.286Z,60.88574219
2022-10-29T14:39:58.302Z,60.88574219
2022-10-29T14:40:52.238Z,60.72265625
2022-10-29T14:41:47.687Z,61.13867188
2022-10-29T14:42:51.302Z,61.55078125
2022-10-29T14:43:47.692Z,61.81542969
2022-10-29T14:44:52.481Z,62.14550781
2022-10-29T14:45:54.623Z,61.81640625
2022-10-29T14:46:55.365Z,61.93945313
2022-10-29T14:47:51.367Z,61.39453125
2022-10-29T14:49:46.979Z,61.6171875
2022-10-29T14:50:47.652Z,61.79785156
2022-10-29T14:51:44.095Z,61.94140625
2022-10-29T14:52:53.386Z,61.45507813
2022-10-29T14:54:41.859Z,62.03613281
2022-10-29T14:55:24.418Z,62.41992188
2022-10-29T14:56:25.419Z,62.66210938
2022-10-29T14:57:31.750Z,62.140625
2022-10-29T14:59:32.652Z,59.71972656
2022-10-29T15:00:30.322Z,59.2421875
2022-10-29T15:01:31.589Z,59.87207031
2022-10-29T15:02:38.018Z,60.59375
2022-10-29T15:02:38.472Z,60.59375
2022-10-29T15:09:31.537Z,56.33789063
2022-10-29T15:10:36.325Z,56.56738281
2022-10-29T15:11:31.700Z,57.359375
2022-10-29T15:12:34.638Z,57.234375
2022-10-29T15:14:33.137Z,57.71484375
2022-10-29T15:15:33.533Z,57.69921875
2022-10-29T15:16:39.905Z,58.77832031
2022-10-29T15:16:42.545Z,58.77832031
2022-10-29T15:17:36.807Z,59.04492188
2022-10-29T15:19:33.156Z,59.55371094
2022-10-29T15:20:33.159Z,59.24414063
2022-10-29T15:21:30.518Z,60.05566406
2022-10-29T15:22:28.554Z,60.79785156
2022-10-29T15:23:28.423Z,60.81347656
2022-10-29T15:24:28.986Z,61.03808594
2022-10-29T15:25:31.140Z,61.49121094
2022-10-29T15:26:23.652Z,61.24511719
2022-10-29T15:27:25.956Z,61.08105469
2022-10-29T15:28:18.548Z,61.00585938
2022-10-29T15:31:19.275Z,61.33300781
2022-10-29T15:32:25.117Z,61.31933594
2022-10-29T15:33:24.132Z,61.05078125
2022-10-29T15:35:24.318Z,61.74707031
2022-10-29T15:36:18.517Z,61.45507813
2022-10-29T15:37:18.310Z,61.55566406
2022-10-29T15:38:15.461Z,61.21679688
2022-10-29T15:40:11.522Z,60.7578125
2022-10-29T15:41:16.101Z,61.28222656
2022-10-29T15:42:18.405Z,60.87402344
2022-10-29T15:43:47.951Z,60.83691406
2022-10-29T15:45:32.910Z,61.51855469
2022-10-29T15:46:32.592Z,60.78222656
2022-10-29T15:47:30.716Z,61.38769531
2022-10-29T15:48:35.988Z,61.28027344
2022-10-29T15:49:32.378Z,61.4140625
2022-10-29T15:50:30.696Z,60.38964844
2022-10-29T15:51:25.988Z,60.13476563
2022-10-29T15:52:27.624Z,60.86621094
2022-10-29T15:53:23.742Z,60.9765625
2022-10-29T15:55:25.997Z,61.52246094
2022-10-29T15:55:27.036Z,61.52246094
2022-10-29T15:56:26.078Z,61.09277344
2022-10-29T15:57:25.859Z,61.22070313
2022-10-29T15:58:21.092Z,61.08007813
2022-10-29T15:59:20.457Z,60.69824219
2022-10-29T16:00:21.509Z,61.51074219
2022-10-29T16:01:23.638Z,61.23144531
2022-10-29T16:02:23.846Z,60.80664063
2022-10-29T16:03:23.180Z,61.015625
2022-10-29T16:04:20.452Z,61.51269531
2022-10-29T16:05:23.526Z,60.65625
2022-10-29T16:06:18.387Z,60.96289063
2022-10-29T16:07:21.189Z,61.59179688
2022-10-29T16:08:16.408Z,61.578125
2022-10-29T16:10:13.177Z,61.55371094
2022-10-29T16:11:13.549Z,60.7109375
2022-10-29T16:12:11.382Z,60.18847656
2022-10-29T16:13:11.559Z,60.17578125
2022-10-29T16:14:07.913Z,60.44042969
2022-10-29T16:15:12.551Z,60.75976563
2022-10-29T16:16:06.998Z,59.88378906
2022-10-29T16:17:05.366Z,59.97753906
2022-10-29T16:18:51.719Z,59.45703125
2022-10-29T16:19:35.923Z,59.41992188
2022-10-29T16:20:33.145Z,58.83691406
2022-10-29T16:21:29.743Z,59.3203125
2022-10-29T16:22:35.608Z,60.23828125
2022-10-29T16:23:35.655Z,59.78515625
2022-10-29T16:25:31.009Z,59.13476563
2022-10-29T16:26:31.074Z,58.70898438
2022-10-29T16:27:31.365Z,58.34960938
2022-10-29T16:28:31.224Z,58.36035156
2022-10-29T16:30:35.611Z,59.08398438
2022-10-29T16:31:32.028Z,59.62402344
2022-10-29T16:32:36.037Z,59.6796875
2022-10-29T16:33:28.608Z,59.73632813
2022-10-29T16:34:30.557Z,58.57617188
2022-10-29T16:35:25.885Z,58.69140625
2022-10-29T16:36:29.334Z,59.17480469
2022-10-29T16:37:29.286Z,58.50488281